Time;durP1;ratioP1;P1;durP2;ratioP2;P2;SDS_P1;SDS_P2;PMS_P1;PMS_P2;Temp;Humidity;BMP_temperature;BMP_pressure;BME280_temperature;BME280_humidity;BME280_pressure;Samples;Min_cycle;Max_cycle;Signal;HPM_P1;HPM_P2
2024/02/02 00:00:06;;;;;;;0.20;0.00;;;;;;;;;;5020062;28;20040;-83
2024/02/02 00:02:37;;;;;;;0.20;0.10;;;;;;;;;;5011441;28;20064;-84
2024/02/02 00:05:06;;;;;;;0.20;0.10;;;;;;;;;;5019651;28;20098;-85
2024/02/02 00:07:32;;;;;;;0.20;0.03;;;;;;;;;;5021144;28;20076;-84
2024/02/02 00:09:59;;;;;;;0.20;0.00;;;;;;;;;;5019154;28;20135;-88
2024/02/02 00:12:25;;;;;;;0.20;0.10;;;;;;;;;;5019093;28;20045;-86
2024/02/02 00:14:54;;;;;;;0.20;0.10;;;;;;;;;;5006013;28;20141;-87
2024/02/02 00:17:20;;;;;;;0.20;0.00;;;;;;;;;;5002023;28;20055;-85
2024/02/02 00:19:46;;;;;;;0.20;0.10;;;;;;;;;;5019592;28;20045;-84
2024/02/02 00:22:13;;;;;;;0.30;0.30;;;;;;;;;;5008933;28;20668;-83
2024/02/02 00:24:39;;;;;;;0.20;0.10;;;;;;;;;;5016581;28;20041;-83
2024/02/02 00:27:05;;;;;;;0.20;0.10;;;;;;;;;;5018871;28;20116;-87
2024/02/02 00:29:31;;;;;;;0.20;0.00;;;;;;;;;;5019717;28;20789;-84
2024/02/02 00:31:57;;;;;;;0.20;0.20;;;;;;;;;;5039466;28;20033;-83
2024/02/02 00:34:23;;;;;;;0.20;0.10;;;;;;;;;;5020490;28;20234;-86
2024/02/02 00:36:49;;;;;;;0.30;0.25;;;;;;;;;;5007223;28;20105;-84
2024/02/02 00:39:15;;;;;;;0.20;0.03;;;;;;;;;;5021336;28;20135;-88
2024/02/02 00:41:44;;;;;;;0.50;0.50;;;;;;;;;;5019218;28;20028;-86
2024/02/02 00:44:11;;;;;;;0.20;0.10;;;;;;;;;;5017844;28;20041;-89
2024/02/02 00:46:37;;;;;;;0.20;0.10;;;;;;;;;;5019000;28;20190;-82
2024/02/02 00:49:03;;;;;;;0.20;0.10;;;;;;;;;;5024522;28;20041;-87
2024/02/02 00:51:29;;;;;;;0.20;0.10;;;;;;;;;;5019083;28;20045;-84
2024/02/02 00:53:55;;;;;;;0.32;0.32;;;;;;;;;;5016293;28;20152;-82
2024/02/02 00:56:23;;;;;;;0.20;0.00;;;;;;;;;;5003174;28;20040;-85
2024/02/02 00:58:49;;;;;;;0.20;0.10;;;;;;;;;;5011803;28;20041;-82
2024/02/02 01:01:18;;;;;;;0.20;0.10;;;;;;;;;;5013344;28;20041;-87
2024/02/02 01:03:44;;;;;;;0.20;0.10;;;;;;;;;;5008774;28;20080;-84
2024/02/02 01:06:11;;;;;;;0.20;0.00;;;;;;;;;;5024737;28;20678;-83
2024/02/02 01:08:37;;;;;;;0.20;0.10;;;;;;;;;;5022348;28;20040;-84
2024/02/02 01:11:03;;;;;;;0.20;0.10;;;;;;;;;;5022250;28;20185;-85
2024/02/02 01:13:31;;;;;;;0.20;0.10;;;;;;;;;;5017677;28;20049;-84
2024/02/02 01:15:57;;;;;;;0.20;0.10;;;;;;;;;;5003087;28;20116;-85
2024/02/02 01:18:24;;;;;;;0.20;0.10;;;;;;;;;;5022176;28;20584;-84
2024/02/02 01:20:50;;;;;;;2.05;0.20;;;;;;;;;;5015419;28;24035;-83
2024/02/02 01:23:21;;;;;;;0.20;0.10;;;;;;;;;;5006830;28;20053;-86
2024/02/02 01:25:48;;;;;;;0.20;0.10;;;;;;;;;;5015312;28;20045;-86
2024/02/02 01:28:14;;;;;;;0.20;0.10;;;;;;;;;;5005837;28;20055;-85
2024/02/02 01:30:42;;;;;;;0.20;0.10;;;;;;;;;;5005054;28;20053;-83
2024/02/02 01:33:08;;;;;;;0.20;0.10;;;;;;;;;;4999532;28;20308;-85
2024/02/02 01:35:34;;;;;;;0.20;0.10;;;;;;;;;;5020013;28;20450;-87
2024/02/02 01:38:01;;;;;;;0.20;0.10;;;;;;;;;;5019129;28;20033;-82
2024/02/02 01:40:27;;;;;;;0.20;0.10;;;;;;;;;;5027892;28;20044;-86
2024/02/02 01:42:53;;;;;;;0.20;0.10;;;;;;;;;;5019793;28;20091;-84
2024/02/02 01:45:22;;;;;;;0.20;0.10;;;;;;;;;;5018626;28;20099;-84
2024/02/02 01:47:48;;;;;;;0.20;0.10;;;;;;;;;;5020019;28;20037;-89
2024/02/02 01:50:17;;;;;;;0.20;0.10;;;;;;;;;;5002564;28;20338;-87
2024/02/02 01:52:45;;;;;;;1.45;1.35;;;;;;;;;;5023901;28;20107;-91
2024/02/02 01:55:12;;;;;;;0.20;0.10;;;;;;;;;;5004994;28;20037;-89
2024/02/02 01:57:40;;;;;;;0.20;0.10;;;;;;;;;;5038431;28;20045;-88
2024/02/02 02:00:11;;;;;;;0.20;0.10;;;;;;;;;;5018173;28;20040;-90
2024/02/02 02:02:37;;;;;;;0.20;0.10;;;;;;;;;;5036439;28;20070;-84
2024/02/02 02:05:03;;;;;;;0.20;0.10;;;;;;;;;;5018011;28;20051;-89
2024/02/02 02:07:30;;;;;;;0.20;0.10;;;;;;;;;;5002577;28;20052;-84
2024/02/02 02:09:56;;;;;;;0.20;0.10;;;;;;;;;;5019828;28;20040;-88
2024/02/02 02:12:34;;;;;;;0.20;0.10;;;;;;;;;;5000473;28;20045;-88
2024/02/02 02:15:00;;;;;;;0.20;0.10;;;;;;;;;;5018054;28;20044;-85
2024/02/02 02:17:26;;;;;;;0.50;0.50;;;;;;;;;;5005064;28;20497;-88
2024/02/02 02:20:01;;;;;;;0.20;0.10;;;;;;;;;;5021375;28;20044;-84
2024/02/02 02:22:27;;;;;;;0.20;0.10;;;;;;;;;;5017244;28;20524;-87
2024/02/02 02:24:54;;;;;;;0.20;0.10;;;;;;;;;;5016883;28;20109;-90
2024/02/02 02:27:20;;;;;;;0.20;0.10;;;;;;;;;;5019070;28;24687;-88
2024/02/02 02:29:48;;;;;;;0.20;0.10;;;;;;;;;;4994020;28;20052;-86
2024/02/02 02:32:26;;;;;;;0.20;0.10;;;;;;;;;;4998043;28;20055;-90
2024/02/02 02:35:08;;;;;;;0.20;0.10;;;;;;;;;;5028977;28;20045;-86
2024/02/02 02:37:46;;;;;;;0.20;0.10;;;;;;;;;;5003930;28;20072;-91
2024/02/02 02:40:15;;;;;;;0.20;0.10;;;;;;;;;;5003353;28;20148;-88
2024/02/02 02:42:41;;;;;;;0.20;0.10;;;;;;;;;;5015926;28;20065;-87
2024/02/02 02:45:10;;;;;;;0.20;0.03;;;;;;;;;;5000941;28;20059;-84
2024/02/02 02:47:57;;;;;;;0.20;0.10;;;;;;;;;;5019753;28;20040;-89
2024/02/02 02:50:23;;;;;;;0.20;0.10;;;;;;;;;;5019368;28;20094;-87
2024/02/02 02:52:54;;;;;;;0.20;0.10;;;;;;;;;;5002172;28;20540;-91
2024/02/02 02:55:24;;;;;;;0.20;0.10;;;;;;;;;;5016979;28;20047;-88
2024/02/02 02:57:51;;;;;;;0.20;0.10;;;;;;;;;;5002046;28;20046;-89
2024/02/02 03:00:17;;;;;;;0.20;0.10;;;;;;;;;;5006759;28;20097;-85
2024/02/02 03:02:43;;;;;;;0.20;0.10;;;;;;;;;;5021753;28;20152;-87
2024/02/02 03:05:18;;;;;;;0.20;0.10;;;;;;;;;;5004812;28;20083;-85
2024/02/02 03:07:47;;;;;;;0.20;0.20;;;;;;;;;;5019405;28;20044;-90
2024/02/02 03:10:13;;;;;;;0.40;0.28;;;;;;;;;;5014336;28;20493;-88
2024/02/02 03:12:39;;;;;;;0.32;0.32;;;;;;;;;;5004285;28;20045;-88
2024/02/02 03:15:08;;;;;;;0.20;0.10;;;;;;;;;;5006644;28;20049;-88
2024/02/02 03:17:37;;;;;;;0.20;0.10;;;;;;;;;;5016927;28;20138;-86
2024/02/02 03:20:07;;;;;;;0.20;0.10;;;;;;;;;;5008457;28;20032;-87
2024/02/02 03:22:39;;;;;;;0.20;0.20;;;;;;;;;;5015938;28;20044;-88
2024/02/02 03:25:11;;;;;;;0.20;0.10;;;;;;;;;;5017157;28;20044;-87
2024/02/02 03:27:37;;;;;;;0.20;0.05;;;;;;;;;;5012002;28;20041;-85
2024/02/02 03:30:29;;;;;;;0.20;0.10;;;;;;;;;;5087578;27;20479;-86
2024/02/02 03:33:18;;;;;;;0.20;0.10;;;;;;;;;;5106560;27;20636;-84
2024/02/02 03:35:56;;;;;;;0.20;0.10;;;;;;;;;;5064827;28;20036;-87
2024/02/02 03:38:25;;;;;;;0.20;0.10;;;;;;;;;;5082704;28;20039;-84
2024/02/02 03:40:51;;;;;;;0.20;0.20;;;;;;;;;;5048007;28;20171;-84
2024/02/02 03:43:20;;;;;;;0.20;0.10;;;;;;;;;;5079281;28;20068;-88
2024/02/02 03:45:46;;;;;;;0.20;0.10;;;;;;;;;;5050212;28;20394;-87
2024/02/02 03:48:21;;;;;;;0.20;0.10;;;;;;;;;;5095917;28;20040;-88
2024/02/02 03:50:56;;;;;;;0.35;0.20;;;;;;;;;;5060030;28;20059;-84
2024/02/02 03:53:24;;;;;;;0.20;0.10;;;;;;;;;;5063184;28;20063;-87
2024/02/02 03:56:01;;;;;;;0.25;0.15;;;;;;;;;;5059220;28;20025;-85
2024/02/02 03:58:29;;;;;;;0.20;0.10;;;;;;;;;;5064301;28;20040;-85
2024/02/02 04:00:59;;;;;;;0.20;0.10;;;;;;;;;;5064188;28;20048;-88
2024/02/02 04:03:28;;;;;;;0.20;0.10;;;;;;;;;;5063973;28;20056;-85
2024/02/02 04:06:23;;;;;;;0.20;0.10;;;;;;;;;;5048861;28;20040;-92
2024/02/02 04:08:49;;;;;;;0.20;0.10;;;;;;;;;;5057452;28;20078;-85
2024/02/02 04:11:18;;;;;;;0.20;0.10;;;;;;;;;;5061840;28;20071;-90
2024/02/02 04:13:51;;;;;;;0.20;0.10;;;;;;;;;;5077883;28;20047;-88
2024/02/02 04:16:17;;;;;;;0.20;0.10;;;;;;;;;;5061061;28;20071;-85
2024/02/02 04:18:46;;;;;;;0.20;0.10;;;;;;;;;;5066108;28;20500;-88
2024/02/02 04:21:22;;;;;;;0.20;0.10;;;;;;;;;;5066907;28;20567;-84
2024/02/02 04:23:48;;;;;;;0.20;0.00;;;;;;;;;;5064714;28;20048;-85
2024/02/02 04:26:16;;;;;;;0.20;0.10;;;;;;;;;;5049837;28;20047;-86
2024/02/02 04:28:55;;;;;;;0.20;0.10;;;;;;;;;;5050677;28;20048;-83
2024/02/02 04:31:21;;;;;;;0.20;0.10;;;;;;;;;;5055223;28;20089;-85
2024/02/02 04:33:50;;;;;;;0.20;0.00;;;;;;;;;;5088937;28;20036;-85
2024/02/02 04:36:22;;;;;;;0.20;0.10;;;;;;;;;;5050782;28;20063;-83
2024/02/02 04:38:48;;;;;;;0.20;0.10;;;;;;;;;;5102373;28;20129;-85
2024/02/02 04:41:17;;;;;;;0.20;0.10;;;;;;;;;;5093666;28;20250;-85
2024/02/02 04:43:43;;;;;;;0.30;0.20;;;;;;;;;;5055821;28;20047;-85
2024/02/02 04:46:21;;;;;;;0.28;0.28;;;;;;;;;;5056203;28;20051;-86
2024/02/02 04:48:47;;;;;;;2.80;0.35;;;;;;;;;;5093931;28;20044;-84
2024/02/02 04:51:19;;;;;;;0.30;0.30;;;;;;;;;;5057360;28;20441;-88
2024/02/02 04:53:52;;;;;;;0.20;0.10;;;;;;;;;;5073278;28;20396;-85
2024/02/02 04:56:18;;;;;;;0.20;0.10;;;;;;;;;;5083718;28;20052;-85
2024/02/02 04:58:44;;;;;;;0.20;0.10;;;;;;;;;;5038950;28;20109;-85
2024/02/02 05:01:10;;;;;;;0.20;0.10;;;;;;;;;;5051094;28;20037;-86
2024/02/02 05:03:36;;;;;;;0.20;0.10;;;;;;;;;;5048185;28;20053;-84
2024/02/02 05:06:02;;;;;;;0.20;0.20;;;;;;;;;;5053832;28;20043;-86
2024/02/02 05:08:29;;;;;;;0.20;0.10;;;;;;;;;;5039111;28;20052;-88
2024/02/02 05:10:55;;;;;;;0.52;0.52;;;;;;;;;;5074765;28;20508;-83
2024/02/02 05:13:21;;;;;;;0.20;0.00;;;;;;;;;;5046542;28;20076;-85
2024/02/02 05:15:47;;;;;;;0.20;0.10;;;;;;;;;;5075568;28;20037;-84
2024/02/02 05:18:14;;;;;;;0.20;0.10;;;;;;;;;;5084475;28;20032;-87
2024/02/02 05:20:40;;;;;;;0.20;0.10;;;;;;;;;;5067259;28;20064;-85
2024/02/02 05:23:10;;;;;;;0.20;0.00;;;;;;;;;;5039236;28;20033;-85
2024/02/02 05:25:39;;;;;;;0.20;0.10;;;;;;;;;;5085596;28;20044;-84
2024/02/02 05:28:09;;;;;;;0.20;0.00;;;;;;;;;;5086789;28;20063;-84
2024/02/02 05:30:36;;;;;;;0.20;0.20;;;;;;;;;;5060512;28;20068;-88
2024/02/02 05:33:02;;;;;;;0.20;0.00;;;;;;;;;;5074308;28;20055;-84
2024/02/02 05:35:28;;;;;;;0.20;0.10;;;;;;;;;;5038349;28;20463;-83
2024/02/02 05:37:54;;;;;;;0.20;0.17;;;;;;;;;;5045154;28;20507;-85
2024/02/02 05:40:20;;;;;;;0.40;0.22;;;;;;;;;;5028571;28;20040;-87
2024/02/02 05:42:46;;;;;;;0.20;0.08;;;;;;;;;;5080382;28;20400;-86
2024/02/02 05:45:12;;;;;;;0.20;0.10;;;;;;;;;;5032135;28;20117;-86
2024/02/02 05:47:38;;;;;;;0.20;0.10;;;;;;;;;;5079190;28;20048;-85
2024/02/02 05:50:05;;;;;;;0.20;0.17;;;;;;;;;;5064933;28;20119;-85
2024/02/02 05:52:31;;;;;;;0.60;0.43;;;;;;;;;;5050437;28;20040;-84
2024/02/02 05:54:57;;;;;;;0.20;0.15;;;;;;;;;;5047276;28;20408;-85
2024/02/02 05:57:23;;;;;;;0.20;0.10;;;;;;;;;;5078489;28;20041;-83
2024/02/02 05:59:49;;;;;;;0.20;0.10;;;;;;;;;;5052421;28;20040;-86
2024/02/02 06:02:15;;;;;;;0.20;0.10;;;;;;;;;;5046539;28;20123;-85
2024/02/02 06:04:41;;;;;;;0.30;0.22;;;;;;;;;;5047622;28;20082;-83
2024/02/02 06:07:07;;;;;;;0.20;0.20;;;;;;;;;;5081797;28;20048;-86
2024/02/02 06:09:33;;;;;;;0.20;0.10;;;;;;;;;;5050787;28;20120;-84
2024/02/02 06:12:02;;;;;;;0.20;0.10;;;;;;;;;;5032549;28;20033;-84
2024/02/02 06:14:30;;;;;;;0.20;0.00;;;;;;;;;;5044817;28;20059;-85
2024/02/02 06:16:56;;;;;;;0.20;0.10;;;;;;;;;;5031711;28;20037;-83
2024/02/02 06:19:22;;;;;;;0.20;0.05;;;;;;;;;;5044152;28;20048;-85
2024/02/02 06:21:54;;;;;;;0.20;0.10;;;;;;;;;;5033917;28;20070;-87
2024/02/02 06:24:20;;;;;;;0.22;0.22;;;;;;;;;;5049980;28;20037;-82
2024/02/02 06:26:46;;;;;;;0.20;0.10;;;;;;;;;;5079933;28;20041;-84
2024/02/02 06:29:18;;;;;;;0.20;0.00;;;;;;;;;;5034075;28;20226;-84
2024/02/02 06:31:47;;;;;;;0.20;0.10;;;;;;;;;;5034319;28;20047;-82
2024/02/02 06:34:13;;;;;;;0.20;0.10;;;;;;;;;;5031594;28;20033;-86
2024/02/02 06:36:42;;;;;;;0.20;0.10;;;;;;;;;;5066375;28;20047;-85
2024/02/02 06:39:08;;;;;;;0.20;0.00;;;;;;;;;;5086419;28;20139;-84
2024/02/02 06:41:34;;;;;;;0.20;0.10;;;;;;;;;;5087396;28;20129;-85
2024/02/02 06:44:02;;;;;;;0.22;0.22;;;;;;;;;;5046128;28;20044;-85
2024/02/02 06:46:29;;;;;;;0.20;0.10;;;;;;;;;;5035319;28;20044;-86
2024/02/02 06:48:55;;;;;;;0.20;0.10;;;;;;;;;;5053308;28;20101;-84
2024/02/02 06:51:21;;;;;;;0.20;0.10;;;;;;;;;;5055035;28;20041;-86
2024/02/02 06:53:47;;;;;;;0.30;0.20;;;;;;;;;;5058326;28;20033;-84
2024/02/02 06:56:29;;;;;;;0.20;0.10;;;;;;;;;;5045143;28;20094;-86
2024/02/02 06:58:55;;;;;;;0.20;0.10;;;;;;;;;;5058252;28;20090;-84
2024/02/02 07:01:21;;;;;;;0.20;0.10;;;;;;;;;;5048718;28;20483;-87
2024/02/02 07:03:48;;;;;;;0.20;0.10;;;;;;;;;;5067177;28;20041;-87
2024/02/02 07:06:14;;;;;;;0.20;0.10;;;;;;;;;;5040207;28;20094;-85
2024/02/02 07:08:40;;;;;;;0.20;0.10;;;;;;;;;;5068257;28;20037;-83
2024/02/02 07:11:06;;;;;;;0.20;0.10;;;;;;;;;;5056034;28;20040;-86
2024/02/02 07:13:39;;;;;;;0.20;0.00;;;;;;;;;;5094600;28;20451;-86
2024/02/02 07:16:10;;;;;;;0.20;0.10;;;;;;;;;;5041800;28;20029;-83
2024/02/02 07:18:37;;;;;;;0.25;0.20;;;;;;;;;;5066976;28;20135;-83
2024/02/02 07:21:04;;;;;;;0.20;0.10;;;;;;;;;;5060606;28;20076;-82
2024/02/02 07:23:37;;;;;;;0.20;0.10;;;;;;;;;;5045672;28;20049;-84
2024/02/02 07:26:07;;;;;;;0.20;0.10;;;;;;;;;;5075631;28;20533;-87
2024/02/02 07:28:34;;;;;;;0.95;0.95;;;;;;;;;;5045560;28;20044;-86
2024/02/02 07:31:03;;;;;;;0.20;0.10;;;;;;;;;;5050327;28;20124;-86
2024/02/02 07:33:40;;;;;;;0.20;0.10;;;;;;;;;;5041452;28;20044;-85
2024/02/02 07:36:09;;;;;;;0.20;0.10;;;;;;;;;;5069642;28;20078;-86
2024/02/02 07:38:49;;;;;;;0.20;0.10;;;;;;;;;;5045346;28;20068;-85
2024/02/02 07:41:15;;;;;;;0.73;0.73;;;;;;;;;;5053535;28;20452;-82
2024/02/02 07:43:41;;;;;;;0.20;0.10;;;;;;;;;;5090066;28;20049;-87
2024/02/02 07:46:08;;;;;;;0.20;0.10;;;;;;;;;;5047702;28;20404;-86
2024/02/02 07:48:35;;;;;;;0.20;0.15;;;;;;;;;;5052449;28;20144;-84
2024/02/02 07:51:01;;;;;;;0.20;0.10;;;;;;;;;;5044003;28;20045;-84
2024/02/02 07:53:28;;;;;;;0.20;0.10;;;;;;;;;;5089786;28;20505;-85
2024/02/02 07:55:54;;;;;;;0.20;0.10;;;;;;;;;;5042681;28;20033;-87
2024/02/02 07:58:20;;;;;;;0.20;0.05;;;;;;;;;;5048138;28;20040;-84
2024/02/02 08:00:50;;;;;;;0.20;0.10;;;;;;;;;;5085621;28;20147;-86
2024/02/02 08:03:16;;;;;;;0.20;0.10;;;;;;;;;;5057152;28;20097;-85
2024/02/02 08:05:42;;;;;;;1.15;1.05;;;;;;;;;;5039121;28;20035;-83
2024/02/02 08:08:08;;;;;;;0.20;0.10;;;;;;;;;;5085083;28;20048;-86
2024/02/02 08:10:35;;;;;;;0.20;0.10;;;;;;;;;;5045109;28;20072;-84
2024/02/02 08:13:01;;;;;;;0.52;0.20;;;;;;;;;;5037816;28;20037;-85
2024/02/02 08:15:27;;;;;;;0.20;0.10;;;;;;;;;;5079041;28;20047;-83
2024/02/02 08:17:53;;;;;;;0.20;0.15;;;;;;;;;;5049866;28;20127;-82
2024/02/02 08:20:19;;;;;;;0.20;0.10;;;;;;;;;;5063104;28;20051;-83
2024/02/02 08:22:46;;;;;;;0.20;0.20;;;;;;;;;;5086809;28;20060;-84
2024/02/02 08:25:12;;;;;;;0.20;0.10;;;;;;;;;;5056795;28;20191;-82
2024/02/02 08:27:39;;;;;;;0.20;0.10;;;;;;;;;;5087273;28;20044;-85
2024/02/02 08:30:06;;;;;;;0.20;0.10;;;;;;;;;;5046663;28;20521;-85
2024/02/02 08:32:32;;;;;;;0.20;0.10;;;;;;;;;;5063127;28;20454;-87
2024/02/02 08:34:58;;;;;;;0.20;0.10;;;;;;;;;;5046183;28;20036;-82
2024/02/02 08:37:24;;;;;;;0.20;0.10;;;;;;;;;;5060726;28;20128;-84
2024/02/02 08:39:52;;;;;;;0.20;0.10;;;;;;;;;;5044315;28;20041;-84
2024/02/02 08:42:22;;;;;;;0.20;0.03;;;;;;;;;;5060283;28;20448;-85
2024/02/02 08:44:48;;;;;;;0.20;0.10;;;;;;;;;;5080447;28;20040;-84
2024/02/02 08:47:14;;;;;;;0.20;0.10;;;;;;;;;;5048454;28;20037;-81
2024/02/02 08:49:55;;;;;;;0.40;0.20;;;;;;;;;;5043582;28;20102;-85
2024/02/02 08:52:35;;;;;;;0.20;0.10;;;;;;;;;;5048401;28;20122;-85
2024/02/02 08:55:04;;;;;;;0.20;0.08;;;;;;;;;;5079636;28;20034;-84
2024/02/02 08:57:31;;;;;;;0.20;0.10;;;;;;;;;;5060867;28;20050;-86
2024/02/02 09:00:04;;;;;;;0.20;0.10;;;;;;;;;;5063928;28;20078;-85
2024/02/02 09:02:49;;;;;;;0.20;0.10;;;;;;;;;;5064933;28;20049;-84
2024/02/02 09:05:22;;;;;;;0.20;0.20;;;;;;;;;;5088066;28;20040;-85
2024/02/02 09:07:53;;;;;;;0.20;0.10;;;;;;;;;;5090517;28;20770;-82
2024/02/02 09:10:22;;;;;;;0.20;0.10;;;;;;;;;;5047134;28;20437;-81
2024/02/02 09:12:52;;;;;;;0.28;0.17;;;;;;;;;;5047421;28;20590;-82
2024/02/02 09:15:18;;;;;;;0.20;0.10;;;;;;;;;;5094967;28;20037;-85
2024/02/02 09:17:44;;;;;;;0.20;0.10;;;;;;;;;;5095224;28;20061;-84
2024/02/02 09:20:18;;;;;;;0.20;0.10;;;;;;;;;;5068183;28;20452;-79
2024/02/02 09:22:44;;;;;;;0.20;0.10;;;;;;;;;;5090206;28;20045;-84
2024/02/02 09:25:10;;;;;;;0.20;0.10;;;;;;;;;;5053775;28;20041;-81
2024/02/02 09:27:38;;;;;;;0.55;0.55;;;;;;;;;;5050585;28;20069;-83
2024/02/02 09:30:06;;;;;;;0.68;0.20;;;;;;;;;;5077139;28;20124;-84
2024/02/02 09:32:32;;;;;;;0.20;0.10;;;;;;;;;;5094275;28;20047;-88
2024/02/02 09:35:03;;;;;;;1.13;0.68;;;;;;;;;;5067813;28;20032;-83
2024/02/02 09:37:42;;;;;;;0.20;0.10;;;;;;;;;;5055802;28;20146;-83
2024/02/02 09:40:27;;;;;;;0.20;0.10;;;;;;;;;;5070485;28;20036;-81
2024/02/02 09:43:02;;;;;;;0.43;0.43;;;;;;;;;;5090125;28;20044;-81
2024/02/02 09:45:44;;;;;;;1.00;0.35;;;;;;;;;;5043070;28;20334;-83
2024/02/02 09:48:25;;;;;;;0.20;0.10;;;;;;;;;;5074541;28;20449;-84
2024/02/02 09:51:12;;;;;;;0.20;0.10;;;;;;;;;;5066826;28;20043;-85
2024/02/02 09:53:56;;;;;;;0.20;0.13;;;;;;;;;;5078626;28;20519;-86
2024/02/02 09:56:31;;;;;;;0.20;0.10;;;;;;;;;;5063202;28;20071;-84
2024/02/02 09:59:04;;;;;;;4.15;0.90;;;;;;;;;;5093560;28;20048;-81
2024/02/02 10:01:53;;;;;;;0.20;0.10;;;;;;;;;;5093088;28;20693;-83
2024/02/02 10:04:30;;;;;;;0.20;0.10;;;;;;;;;;5060706;28;20051;-84
2024/02/02 10:06:59;;;;;;;0.20;0.10;;;;;;;;;;5047298;28;20071;-84
2024/02/02 10:09:52;;;;;;;0.20;0.10;;;;;;;;;;5046643;28;20056;-80
2024/02/02 10:12:24;;;;;;;0.20;0.00;;;;;;;;;;5046367;28;20061;-86
2024/02/02 10:15:09;;;;;;;0.40;0.30;;;;;;;;;;5091459;28;20036;-84
2024/02/02 10:17:50;;;;;;;0.20;0.10;;;;;;;;;;5073974;28;20397;-84
2024/02/02 10:20:36;;;;;;;0.20;0.10;;;;;;;;;;5058784;28;20036;-81
2024/02/02 10:23:23;;;;;;;0.20;0.10;;;;;;;;;;5066785;28;20046;-84
2024/02/02 10:26:08;;;;;;;0.20;0.08;;;;;;;;;;5076248;28;20055;-81
2024/02/02 10:28:44;;;;;;;0.20;0.13;;;;;;;;;;5044981;28;20401;-83
2024/02/02 10:31:19;;;;;;;0.20;0.10;;;;;;;;;;5074017;28;20043;-83
2024/02/02 10:33:52;;;;;;;0.20;0.10;;;;;;;;;;5065085;28;20646;-82
2024/02/02 10:36:21;;;;;;;0.20;0.15;;;;;;;;;;5080330;28;20044;-83
2024/02/02 10:38:58;;;;;;;0.20;0.10;;;;;;;;;;5039155;28;20041;-80
2024/02/02 10:41:43;;;;;;;0.20;0.10;;;;;;;;;;5045271;28;20048;-84
2024/02/02 10:44:31;;;;;;;0.20;0.10;;;;;;;;;;5053204;28;20643;-85
2024/02/02 10:47:00;;;;;;;0.20;0.08;;;;;;;;;;5059662;28;20036;-84
2024/02/02 10:49:45;;;;;;;0.20;0.10;;;;;;;;;;5091867;28;20044;-83
2024/02/02 10:52:23;;;;;;;0.20;0.10;;;;;;;;;;5062350;28;20037;-85
2024/02/02 10:54:51;;;;;;;0.40;0.30;;;;;;;;;;5047584;28;20067;-84
2024/02/02 10:57:17;;;;;;;0.20;0.10;;;;;;;;;;5052382;28;20052;-85
2024/02/02 10:59:49;;;;;;;0.20;0.10;;;;;;;;;;5091202;28;20504;-85
2024/02/02 11:02:22;;;;;;;0.20;0.10;;;;;;;;;;5051554;28;20040;-83
2024/02/02 11:04:48;;;;;;;0.20;0.10;;;;;;;;;;5059786;28;20054;-83
2024/02/02 11:07:29;;;;;;;0.20;0.10;;;;;;;;;;5059591;28;20041;-82
2024/02/02 11:09:58;;;;;;;0.20;0.10;;;;;;;;;;5060608;28;20108;-86
2024/02/02 11:12:25;;;;;;;0.20;0.10;;;;;;;;;;5041586;28;20127;-84
2024/02/02 11:15:12;;;;;;;0.20;0.00;;;;;;;;;;5064231;28;20155;-83
2024/02/02 11:17:50;;;;;;;0.20;0.10;;;;;;;;;;5055971;28;20040;-84
2024/02/02 11:20:35;;;;;;;0.20;0.10;;;;;;;;;;5062898;28;20041;-84
2024/02/02 11:23:10;;;;;;;5.32;2.38;;;;;;;;;;5075931;28;20500;-85
2024/02/02 11:25:38;;;;;;;0.20;0.10;;;;;;;;;;5048557;28;20067;-82
2024/02/02 11:28:10;;;;;;;0.20;0.10;;;;;;;;;;5055261;28;20044;-87
2024/02/02 11:30:41;;;;;;;0.20;0.10;;;;;;;;;;5060735;28;20036;-85
2024/02/02 11:33:19;;;;;;;0.20;0.10;;;;;;;;;;5090431;28;20033;-86
2024/02/02 11:35:55;;;;;;;0.20;0.00;;;;;;;;;;5062166;28;20370;-84
2024/02/02 11:38:21;;;;;;;0.65;0.32;;;;;;;;;;5047767;28;20044;-84
2024/02/02 11:40:49;;;;;;;0.20;0.10;;;;;;;;;;5063450;28;20142;-86
2024/02/02 11:43:19;;;;;;;0.20;0.10;;;;;;;;;;5047999;28;20036;-85
2024/02/02 11:45:46;;;;;;;0.40;0.40;;;;;;;;;;5069361;28;20144;-86
2024/02/02 11:48:34;;;;;;;0.20;0.10;;;;;;;;;;5045614;28;20044;-83
2024/02/02 11:51:01;;;;;;;0.35;0.35;;;;;;;;;;5092424;28;20043;-82
2024/02/02 11:53:36;;;;;;;0.20;0.10;;;;;;;;;;5088386;28;20040;-83
2024/02/02 11:56:17;;;;;;;0.20;0.10;;;;;;;;;;5065283;28;20099;-84
2024/02/02 11:58:45;;;;;;;0.20;0.10;;;;;;;;;;5090399;28;20069;-84
2024/02/02 12:01:12;;;;;;;0.47;0.47;;;;;;;;;;5049777;28;20040;-86
2024/02/02 12:03:53;;;;;;;0.20;0.10;;;;;;;;;;5051113;28;20032;-86
2024/02/02 12:06:20;;;;;;;0.20;0.10;;;;;;;;;;5046152;28;20040;-83
2024/02/02 12:08:50;;;;;;;0.20;0.10;;;;;;;;;;5052934;28;20711;-84
2024/02/02 12:11:17;;;;;;;0.20;0.10;;;;;;;;;;5060522;28;20401;-82
2024/02/02 12:13:44;;;;;;;1.27;0.35;;;;;;;;;;5054174;28;20040;-84
2024/02/02 12:16:10;;;;;;;0.20;0.10;;;;;;;;;;5051937;28;20047;-83
2024/02/02 12:18:39;;;;;;;0.40;0.20;;;;;;;;;;5067241;28;20041;-86
2024/02/02 12:21:12;;;;;;;0.20;0.10;;;;;;;;;;5059162;28;20043;-83
2024/02/02 12:23:38;;;;;;;;;;;;;;;;;;5060879;28;20511;-81
2024/02/02 12:26:06;;;;;;;0.20;0.10;;;;;;;;;;5075642;28;20407;-80
2024/02/02 12:28:33;;;;;;;0.22;0.22;;;;;;;;;;5094140;28;20040;-81
2024/02/02 12:30:59;;;;;;;0.20;0.10;;;;;;;;;;5049731;28;20071;-80
2024/02/02 12:33:25;;;;;;;0.35;0.35;;;;;;;;;;5091119;28;20035;-82
2024/02/02 12:35:54;;;;;;;0.20;0.10;;;;;;;;;;5076771;28;20033;-84
2024/02/02 12:38:23;;;;;;;0.20;0.08;;;;;;;;;;5088499;28;20147;-83
2024/02/02 12:40:49;;;;;;;0.20;0.10;;;;;;;;;;5048579;28;20471;-81
2024/02/02 12:43:23;;;;;;;0.20;0.10;;;;;;;;;;5092793;28;20441;-85
2024/02/02 12:45:49;;;;;;;0.20;0.10;;;;;;;;;;5095718;28;20124;-82
2024/02/02 12:48:18;;;;;;;0.20;0.10;;;;;;;;;;5088307;28;20040;-83
2024/02/02 12:50:45;;;;;;;0.63;0.63;;;;;;;;;;5051695;28;20040;-84
2024/02/02 12:53:11;;;;;;;0.20;0.10;;;;;;;;;;5095945;28;20040;-85
2024/02/02 12:55:46;;;;;;;0.20;0.10;;;;;;;;;;5092580;28;20071;-82
2024/02/02 12:58:15;;;;;;;0.20;0.10;;;;;;;;;;5045744;28;20093;-83
2024/02/02 13:00:42;;;;;;;0.20;0.00;;;;;;;;;;5039826;28;20036;-81
2024/02/02 13:03:09;;;;;;;0.20;0.10;;;;;;;;;;5050881;28;20047;-83
2024/02/02 13:05:37;;;;;;;0.40;0.40;;;;;;;;;;5086867;28;20089;-81
2024/02/02 13:08:03;;;;;;;0.20;0.15;;;;;;;;;;5051245;28;20053;-82
2024/02/02 13:10:36;;;;;;;0.20;0.10;;;;;;;;;;5052130;28;20055;-82
2024/02/02 13:13:12;;;;;;;0.20;0.10;;;;;;;;;;5067691;28;20036;-83
2024/02/02 13:15:38;;;;;;;0.75;0.55;;;;;;;;;;5051140;28;20029;-82
2024/02/02 13:18:10;;;;;;;0.38;0.38;;;;;;;;;;5082890;28;20037;-83
2024/02/02 13:20:39;;;;;;;0.20;0.10;;;;;;;;;;5037734;28;20049;-83
2024/02/02 13:23:10;;;;;;;0.82;0.82;;;;;;;;;;5070920;28;20514;-82
2024/02/02 13:25:42;;;;;;;0.20;0.10;;;;;;;;;;5087126;28;20443;-83
2024/02/02 13:28:15;;;;;;;0.55;0.55;;;;;;;;;;5042148;28;20041;-84
2024/02/02 13:30:52;;;;;;;0.47;0.30;;;;;;;;;;5055520;28;20071;-82
2024/02/02 13:33:20;;;;;;;0.20;0.10;;;;;;;;;;5053086;28;20076;-82
2024/02/02 13:35:53;;;;;;;0.20;0.10;;;;;;;;;;5066173;28;20066;-85
2024/02/02 13:38:21;;;;;;;0.20;0.10;;;;;;;;;;5043129;28;20072;-83
2024/02/02 13:40:53;;;;;;;0.20;0.10;;;;;;;;;;5065139;28;20119;-83
2024/02/02 13:43:19;;;;;;;0.20;0.10;;;;;;;;;;5037618;28;20037;-83
2024/02/02 13:45:47;;;;;;;0.20;0.10;;;;;;;;;;5063034;28;20524;-83
2024/02/02 13:48:14;;;;;;;2.50;2.00;;;;;;;;;;5071467;28;20159;-85
2024/02/02 13:50:51;;;;;;;3.33;2.20;;;;;;;;;;5085602;28;20061;-80
2024/02/02 13:53:27;;;;;;;0.50;0.50;;;;;;;;;;5050080;28;20045;-85
2024/02/02 13:55:53;;;;;;;0.20;0.08;;;;;;;;;;5061208;28;20515;-84
2024/02/02 13:58:19;;;;;;;0.20;0.10;;;;;;;;;;5045731;28;20126;-83
2024/02/02 14:00:48;;;;;;;0.20;0.15;;;;;;;;;;5067235;28;20384;-85
2024/02/02 14:03:17;;;;;;;0.20;0.10;;;;;;;;;;5054548;28;20040;-83
2024/02/02 14:05:43;;;;;;;0.20;0.10;;;;;;;;;;5042992;28;20929;-80
2024/02/02 14:08:09;;;;;;;0.40;0.40;;;;;;;;;;5057446;28;20063;-81
2024/02/02 14:10:54;;;;;;;0.30;0.30;;;;;;;;;;5035012;28;20497;-82
2024/02/02 14:13:20;;;;;;;0.20;0.15;;;;;;;;;;5042652;28;20045;-81
2024/02/02 14:15:48;;;;;;;0.20;0.10;;;;;;;;;;5053639;28;20036;-84
2024/02/02 14:18:21;;;;;;;0.43;0.40;;;;;;;;;;5068575;28;20072;-83
2024/02/02 14:20:49;;;;;;;0.20;0.10;;;;;;;;;;5072812;27;20093;-82
2024/02/02 14:23:15;;;;;;;0.20;0.10;;;;;;;;;;5037486;28;20527;-84
2024/02/02 14:25:42;;;;;;;0.20;0.10;;;;;;;;;;5082133;28;20052;-82
2024/02/02 14:28:17;;;;;;;0.20;0.10;;;;;;;;;;5050270;28;20082;-84
2024/02/02 14:30:44;;;;;;;0.20;0.10;;;;;;;;;;5048776;28;20066;-82
2024/02/02 14:33:12;;;;;;;0.65;0.65;;;;;;;;;;5047341;28;20063;-86
2024/02/02 14:35:41;;;;;;;0.20;0.00;;;;;;;;;;5043486;28;20044;-84
2024/02/02 14:38:10;;;;;;;0.30;0.28;;;;;;;;;;5037670;28;20151;-83
2024/02/02 14:40:36;;;;;;;0.40;0.40;;;;;;;;;;5069254;28;20491;-84
2024/02/02 14:43:05;;;;;;;0.20;0.10;;;;;;;;;;5080834;28;20068;-87
2024/02/02 14:45:33;;;;;;;0.20;0.10;;;;;;;;;;5066330;28;20568;-84
2024/02/02 14:47:59;;;;;;;0.20;0.20;;;;;;;;;;5083611;28;20139;-83
2024/02/02 14:50:25;;;;;;;0.57;0.43;;;;;;;;;;5035140;28;20044;-83
2024/02/02 14:52:52;;;;;;;0.20;0.10;;;;;;;;;;5061427;28;20032;-85
2024/02/02 14:55:18;;;;;;;0.20;0.10;;;;;;;;;;5038323;28;20133;-84
2024/02/02 14:57:44;;;;;;;0.20;0.10;;;;;;;;;;5052959;28;20037;-83